createdAt,value
2023-05-04T00:01:43.200Z,11.81
2023-05-04T00:04:10.496Z,11.78
2023-05-04T00:06:37.714Z,11.74
2023-05-04T00:09:06.471Z,11.71
2023-05-04T00:11:33.374Z,11.67
2023-05-04T00:14:00.172Z,11.61
2023-05-04T00:16:26.999Z,11.55
2023-05-04T00:18:54.201Z,11.50
2023-05-04T00:21:20.958Z,11.45
2023-05-04T00:23:47.694Z,11.41
2023-05-04T00:26:14.555Z,11.38
2023-05-04T00:28:43.358Z,11.34
2023-05-04T00:31:10.602Z,11.32
2023-05-04T00:33:38.787Z,11.31
2023-05-04T00:36:06.530Z,11.30
2023-05-04T00:38:49.911Z,11.28
2023-05-04T00:41:17.065Z,11.26
2023-05-04T00:43:44.106Z,11.23
2023-05-04T00:46:11.149Z,11.18
2023-05-04T00:48:41.824Z,11.14
2023-05-04T00:51:10.232Z,11.11
2023-05-04T00:53:37.582Z,11.08
2023-05-04T00:56:04.838Z,11.06
2023-05-04T00:58:31.976Z,11.03
2023-05-04T01:00:58.995Z,11.01
2023-05-04T01:03:26.086Z,11.01
2023-05-04T01:06:25.448Z,11.00
2023-05-04T01:09:06.161Z,10.99
2023-05-04T01:12:02.709Z,10.97
2023-05-04T01:14:30.368Z,10.93
2023-05-04T01:16:57.740Z,10.88
2023-05-04T01:19:28.745Z,10.81
2023-05-04T01:21:56.408Z,10.76
2023-05-04T01:24:26.219Z,10.69
2023-05-04T01:27:30.592Z,10.63
2023-05-04T01:32:47.101Z,10.59
2023-05-04T01:35:13.991Z,10.57
2023-05-04T01:37:41.175Z,10.60
2023-05-04T01:40:08.691Z,10.60
2023-05-04T01:42:35.843Z,10.58
2023-05-04T01:45:03.938Z,10.56
2023-05-04T01:47:31.183Z,10.54
2023-05-04T01:49:58.042Z,10.51
2023-05-04T01:52:25.114Z,10.49
2023-05-04T01:54:52.035Z,10.48
2023-05-04T01:57:18.896Z,10.47
2023-05-04T01:59:45.665Z,10.45
2023-05-04T02:02:12.407Z,10.44
2023-05-04T02:04:42.887Z,10.41
2023-05-04T02:07:09.744Z,10.40
2023-05-04T02:09:36.528Z,10.38
2023-05-04T02:12:03.680Z,10.35
2023-05-04T02:14:30.519Z,10.31
2023-05-04T02:16:57.523Z,10.27
2023-05-04T02:19:24.455Z,10.25
2023-05-04T02:21:52.394Z,10.23
2023-05-04T02:24:21.764Z,10.20
2023-05-04T02:26:48.616Z,10.15
2023-05-04T02:29:15.525Z,10.14
2023-05-04T02:31:42.495Z,10.14
2023-05-04T02:34:09.411Z,10.14
2023-05-04T02:36:41.594Z,10.14
2023-05-04T02:39:08.630Z,10.15
2023-05-04T02:41:36.386Z,10.15
2023-05-04T02:44:03.235Z,10.16
2023-05-04T02:46:32.153Z,10.16
2023-05-04T02:48:59.275Z,10.16
2023-05-04T02:51:26.018Z,10.14
2023-05-04T02:53:52.795Z,10.14
2023-05-04T02:56:20.164Z,10.13
2023-05-04T02:58:47.058Z,10.15
2023-05-04T03:01:13.903Z,10.18
2023-05-04T03:03:40.972Z,10.19
2023-05-04T03:06:07.769Z,10.17
2023-05-04T03:08:35.511Z,10.12
2023-05-04T03:11:02.710Z,10.07
2023-05-04T03:13:29.747Z,10.05
2023-05-04T03:15:56.583Z,10.01
2023-05-04T03:18:23.978Z,9.96
2023-05-04T03:20:50.965Z,9.92
2023-05-04T03:23:19.393Z,9.90
2023-05-04T03:25:46.289Z,9.97
2023-05-04T03:28:14.402Z,10.07
2023-05-04T03:30:42.317Z,10.20
2023-05-04T03:33:09.978Z,10.34
2023-05-04T03:35:36.780Z,10.46
2023-05-04T03:38:06.041Z,10.55
2023-05-04T03:40:33.763Z,10.65
2023-05-04T03:43:01.478Z,10.71
2023-05-04T03:45:28.754Z,10.76
2023-05-04T03:47:57.480Z,10.82
2023-05-04T03:50:25.391Z,10.89
2023-05-04T03:52:52.319Z,10.98
2023-05-04T03:55:20.376Z,11.09
2023-05-04T03:57:49.361Z,11.23
2023-05-04T04:00:17.038Z,11.36
2023-05-04T04:02:47.551Z,11.49
2023-05-04T04:05:17.742Z,11.62
2023-05-04T04:07:45.103Z,11.77
2023-05-04T04:10:12.182Z,12.02
2023-05-04T04:12:40.037Z,12.42
2023-05-04T04:15:07.429Z,12.95
2023-05-04T04:17:34.321Z,13.46
2023-05-04T04:20:01.314Z,13.92
2023-05-04T04:22:28.431Z,14.30
2023-05-04T04:24:55.843Z,14.59
2023-05-04T04:27:22.600Z,14.84
2023-05-04T04:29:49.386Z,15.04
2023-05-04T04:32:16.452Z,15.22
2023-05-04T04:34:43.714Z,15.35
2023-05-04T04:37:11.354Z,15.45
2023-05-04T04:39:38.397Z,15.54
2023-05-04T04:42:05.214Z,15.63
2023-05-04T04:44:32.124Z,15.73
2023-05-04T04:46:59.008Z,15.88
2023-05-04T04:49:27.030Z,16.06
2023-05-04T04:51:53.760Z,16.31
2023-05-04T04:54:20.594Z,16.64
2023-05-04T04:56:47.427Z,17.03
2023-05-04T04:59:14.203Z,17.58
2023-05-04T05:01:41.652Z,18.29
2023-05-04T05:04:08.461Z,19.05
2023-05-04T05:06:36.184Z,19.79
2023-05-04T05:09:03.379Z,20.50
2023-05-04T05:11:30.155Z,21.21
2023-05-04T05:13:59.316Z,21.84
2023-05-04T05:16:26.493Z,22.43
2023-05-04T05:18:53.321Z,22.95
2023-05-04T05:21:20.440Z,23.45
2023-05-04T05:23:47.442Z,23.90
2023-05-04T05:26:14.180Z,24.33
2023-05-04T05:28:41.577Z,24.79
2023-05-04T05:31:09.030Z,25.15
2023-05-04T05:33:36.201Z,25.47
2023-05-04T05:36:03.639Z,25.77
2023-05-04T05:38:30.592Z,26.09
2023-05-04T05:40:58.040Z,26.43
2023-05-04T05:43:25.393Z,26.73
2023-05-04T05:45:53.303Z,27.02
2023-05-04T05:48:20.232Z,27.29
2023-05-04T05:50:47.560Z,27.56
2023-05-04T05:53:14.754Z,27.77
2023-05-04T05:55:41.667Z,27.90
2023-05-04T05:58:09.593Z,27.98
2023-05-04T06:00:43.622Z,27.99
2023-05-04T06:03:10.779Z,28.03
2023-05-04T06:05:38.235Z,28.07
2023-05-04T06:08:05.144Z,28.11
2023-05-04T06:10:33.123Z,28.11
2023-05-04T06:13:00.761Z,28.08
2023-05-04T06:15:28.231Z,28.04
2023-05-04T06:17:55.703Z,28.16
2023-05-04T06:20:22.758Z,28.34
2023-05-04T06:22:49.792Z,28.52
2023-05-04T06:25:16.889Z,28.69
2023-05-04T06:27:43.942Z,28.87
2023-05-04T06:30:11.386Z,29.05
2023-05-04T06:32:39.156Z,29.25
2023-05-04T06:35:08.459Z,29.46
2023-05-04T06:37:35.970Z,29.64
2023-05-04T06:40:04.622Z,29.77
2023-05-04T06:42:33.092Z,29.89
2023-05-04T06:44:59.981Z,30.03
2023-05-04T06:47:26.978Z,30.21
2023-05-04T06:49:53.783Z,30.38
2023-05-04T06:52:21.388Z,30.44
2023-05-04T06:54:48.343Z,30.50
2023-05-04T06:57:15.431Z,30.55
2023-05-04T06:59:42.915Z,30.75
2023-05-04T07:02:10.540Z,30.94
2023-05-04T07:04:38.269Z,31.10
2023-05-04T07:07:05.549Z,31.28
2023-05-04T07:09:32.677Z,31.45
2023-05-04T07:11:59.693Z,31.53
2023-05-04T07:14:26.810Z,31.49
2023-05-04T07:16:53.602Z,31.48
2023-05-04T07:19:20.636Z,31.41
2023-05-04T07:21:48.256Z,31.32
2023-05-04T07:24:15.091Z,31.29
2023-05-04T07:26:42.046Z,31.13
2023-05-04T07:29:09.191Z,30.98
2023-05-04T07:31:37.880Z,30.67
2023-05-04T07:34:04.935Z,30.32
2023-05-04T07:36:35.018Z,30.12
2023-05-04T07:39:01.891Z,30.08
2023-05-04T07:41:28.728Z,30.23
2023-05-04T07:43:56.139Z,30.45
2023-05-04T07:46:23.056Z,30.69
2023-05-04T07:48:50.542Z,30.91
2023-05-04T07:51:18.629Z,30.89
2023-05-04T07:53:46.822Z,30.86
2023-05-04T07:56:13.679Z,30.66
2023-05-04T07:58:41.553Z,30.51
2023-05-04T08:01:08.411Z,30.55
2023-05-04T08:03:35.947Z,30.48
2023-05-04T08:06:03.109Z,30.45
2023-05-04T08:08:30.158Z,30.57
2023-05-04T08:11:07.882Z,30.78
2023-05-04T08:13:50.155Z,31.06
2023-05-04T08:16:17.054Z,31.13
2023-05-04T08:18:44.542Z,31.01
2023-05-04T08:21:11.982Z,30.83
2023-05-04T08:23:39.393Z,30.77
2023-05-04T08:26:06.628Z,30.83
2023-05-04T08:28:45.209Z,30.81
2023-05-04T08:31:12.810Z,30.90
2023-05-04T08:33:39.996Z,30.99
2023-05-04T08:36:08.512Z,31.07
2023-05-04T08:38:35.654Z,31.13
2023-05-04T08:41:03.920Z,31.29
2023-05-04T08:43:34.765Z,31.44
2023-05-04T08:46:02.847Z,31.68
2023-05-04T08:48:31.556Z,31.94
2023-05-04T08:50:58.590Z,32.01
2023-05-04T08:53:25.468Z,32.00
2023-05-04T08:55:52.579Z,31.98
2023-05-04T08:58:19.681Z,31.96
2023-05-04T09:00:46.581Z,31.90
2023-05-04T09:03:13.711Z,31.70
2023-05-04T09:05:44.778Z,31.46
2023-05-04T09:08:12.014Z,31.40
2023-05-04T09:10:39.368Z,31.49
2023-05-04T09:13:06.775Z,31.49
2023-05-04T09:15:34.084Z,31.37
2023-05-04T09:18:03.565Z,31.18
2023-05-04T09:20:30.954Z,31.02
2023-05-04T09:26:46.783Z,30.61
2023-05-04T09:29:14.424Z,30.57
2023-05-04T09:31:48.010Z,30.63
2023-05-04T09:34:15.137Z,30.73
2023-05-04T09:36:42.159Z,30.91
2023-05-04T09:39:12.479Z,30.99
2023-05-04T09:41:39.671Z,31.06
2023-05-04T09:44:17.903Z,31.10
2023-05-04T09:46:58.131Z,30.97
2023-05-04T09:49:36.452Z,30.99
2023-05-04T09:52:06.628Z,31.00
2023-05-04T09:54:35.971Z,30.92
2023-05-04T09:57:14.069Z,30.85
2023-05-04T09:59:41.636Z,30.89
2023-05-04T10:02:18.789Z,30.99
2023-05-04T10:04:51.951Z,31.05
2023-05-04T10:07:19.033Z,31.07
2023-05-04T10:09:45.937Z,31.04
2023-05-04T10:12:14.058Z,30.87
2023-05-04T10:14:42.415Z,30.69
2023-05-04T10:17:13.830Z,30.49
2023-05-04T10:19:56.838Z,30.37
2023-05-04T10:22:32.987Z,30.36
2023-05-04T10:25:42.185Z,30.33
2023-05-04T10:28:30.521Z,30.38
2023-05-04T10:30:57.799Z,30.62
2023-05-04T10:33:43.095Z,30.85
2023-05-04T10:36:10.205Z,31.07
2023-05-04T10:38:38.833Z,31.19
2023-05-04T10:41:16.463Z,31.32
2023-05-04T10:43:49.064Z,31.45
2023-05-04T10:46:21.404Z,31.58
2023-05-04T10:48:49.061Z,31.69
2023-05-04T10:51:32.594Z,31.76
2023-05-04T10:54:06.172Z,31.86
2023-05-04T10:56:33.480Z,31.97
2023-05-04T10:59:08.058Z,32.10
2023-05-04T11:01:44.123Z,32.01
2023-05-04T11:04:23.195Z,31.99
2023-05-04T11:07:00.534Z,32.02
2023-05-04T11:09:28.183Z,32.08
2023-05-04T11:11:55.790Z,32.08
2023-05-04T11:14:26.912Z,32.02
2023-05-04T11:17:19.637Z,31.95
2023-05-04T11:19:53.309Z,31.77
2023-05-04T11:22:20.409Z,31.40
2023-05-04T11:24:50.143Z,30.82
2023-05-04T11:27:35.144Z,30.33
2023-05-04T11:30:04.041Z,29.96
2023-05-04T11:32:46.320Z,29.69
2023-05-04T11:35:19.053Z,29.59
2023-05-04T11:37:46.433Z,29.60
2023-05-04T11:40:14.479Z,29.56
2023-05-04T11:42:56.747Z,29.43
2023-05-04T11:45:32.694Z,29.27
2023-05-04T11:47:59.794Z,29.14
2023-05-04T11:50:27.444Z,29.02
2023-05-04T11:53:08.456Z,28.82
2023-05-04T11:55:36.914Z,28.56
2023-05-04T11:58:04.437Z,28.26
2023-05-04T12:00:36.834Z,27.99
2023-05-04T12:03:05.333Z,27.70
2023-05-04T12:05:36.002Z,27.36
2023-05-04T12:08:04.005Z,27.02
2023-05-04T12:10:35.220Z,26.75
2023-05-04T12:13:02.136Z,26.55
2023-05-04T12:15:38.825Z,26.45
2023-05-04T12:18:05.745Z,26.42
2023-05-04T12:20:33.410Z,26.37
2023-05-04T12:23:06.874Z,26.33
2023-05-04T12:25:34.499Z,26.23
2023-05-04T12:28:02.698Z,26.08
2023-05-04T12:30:30.359Z,25.94
2023-05-04T12:32:57.249Z,25.83
2023-05-04T12:35:24.253Z,25.72
2023-05-04T12:37:51.128Z,25.60
2023-05-04T12:40:28.278Z,25.43
2023-05-04T12:42:56.100Z,25.26
2023-05-04T12:45:22.949Z,25.12
2023-05-04T12:47:50.006Z,24.99
2023-05-04T12:50:17.044Z,24.85
2023-05-04T12:52:43.902Z,24.74
2023-05-04T12:55:10.759Z,24.69
2023-05-04T12:57:39.076Z,24.63
2023-05-04T13:00:09.337Z,24.56
2023-05-04T13:02:37.200Z,24.47
2023-05-04T13:05:04.402Z,24.30
2023-05-04T13:07:31.626Z,24.17
2023-05-04T13:09:58.735Z,24.06
2023-05-04T13:12:25.994Z,23.95
2023-05-04T13:14:54.905Z,23.84
2023-05-04T13:17:21.710Z,23.73
2023-05-04T13:19:50.294Z,23.62
2023-05-04T13:22:17.432Z,23.53
2023-05-04T13:24:44.939Z,23.42
2023-05-04T13:27:11.734Z,23.30
2023-05-04T13:29:38.596Z,23.19
2023-05-04T13:32:06.259Z,23.10
2023-05-04T13:34:33.969Z,23.01
2023-05-04T13:37:01.261Z,22.94
2023-05-04T13:39:28.290Z,22.88
2023-05-04T13:41:57.001Z,22.84
2023-05-04T13:44:24.216Z,22.81
2023-05-04T13:50:03.248Z,22.75
2023-05-04T13:52:33.459Z,22.67
2023-05-04T13:55:00.908Z,22.62
2023-05-04T13:57:27.994Z,22.55
2023-05-04T14:00:06.439Z,22.48
2023-05-04T14:02:42.192Z,22.42
2023-05-04T14:05:09.718Z,22.38
2023-05-04T14:07:37.869Z,22.34
2023-05-04T14:10:05.346Z,22.30
2023-05-04T14:12:34.236Z,22.28
2023-05-04T14:15:01.229Z,22.27
2023-05-04T14:17:28.280Z,22.26
2023-05-04T14:19:58.321Z,22.27
2023-05-04T14:22:25.275Z,22.28
2023-05-04T14:24:52.416Z,22.29
2023-05-04T14:27:20.537Z,22.30
2023-05-04T14:29:48.043Z,22.31
2023-05-04T14:32:15.192Z,22.33
2023-05-04T14:34:42.422Z,22.34
2023-05-04T14:37:09.252Z,22.35
2023-05-04T14:39:36.700Z,22.36
2023-05-04T14:42:03.646Z,22.35
2023-05-04T14:44:30.895Z,22.34
2023-05-04T14:46:57.666Z,22.34
2023-05-04T14:49:36.632Z,22.31
2023-05-04T14:52:04.648Z,22.27
2023-05-04T14:54:32.041Z,22.20
2023-05-04T14:56:59.334Z,22.14
2023-05-04T14:59:26.198Z,22.07
2023-05-04T15:01:54.361Z,22.00
2023-05-04T15:04:21.194Z,21.92
2023-05-04T15:06:48.834Z,21.86
2023-05-04T15:09:15.956Z,21.81
2023-05-04T15:11:42.862Z,21.75
2023-05-04T15:14:10.736Z,21.69
2023-05-04T15:16:37.829Z,21.65
2023-05-04T15:19:04.783Z,21.62
2023-05-04T15:21:32.545Z,21.59
2023-05-04T15:24:00.206Z,21.57
2023-05-04T15:26:28.680Z,21.53
2023-05-04T15:28:55.695Z,21.51
2023-05-04T15:31:22.799Z,21.48
2023-05-04T15:33:49.846Z,21.44
2023-05-04T15:36:16.799Z,21.40
2023-05-04T15:38:43.905Z,21.34
2023-05-04T15:41:13.890Z,21.29
2023-05-04T15:43:41.490Z,21.23
2023-05-04T15:46:09.041Z,21.18
2023-05-04T15:48:36.567Z,21.10
2023-05-04T15:51:11.980Z,21.04
2023-05-04T15:53:40.541Z,20.97
2023-05-04T15:56:07.470Z,20.92
2023-05-04T15:58:35.688Z,20.86
2023-05-04T16:01:03.347Z,20.81
2023-05-04T16:03:31.241Z,20.75
2023-05-04T16:05:59.071Z,20.70
2023-05-04T16:08:26.507Z,20.64
2023-05-04T16:10:53.349Z,20.60
2023-05-04T16:13:20.656Z,20.55
2023-05-04T16:15:51.435Z,20.49
2023-05-04T16:18:20.550Z,20.44
2023-05-04T16:20:48.183Z,20.37
2023-05-04T16:23:17.199Z,20.30
2023-05-04T16:25:44.549Z,20.22
2023-05-04T16:28:11.594Z,20.15
2023-05-04T16:30:41.975Z,20.06
2023-05-04T16:33:08.964Z,19.98
2023-05-04T16:35:39.779Z,19.91
2023-05-04T16:38:29.660Z,19.82
2023-05-04T16:41:01.913Z,19.75
2023-05-04T16:43:32.140Z,19.67
2023-05-04T16:46:05.381Z,19.61
2023-05-04T16:48:32.604Z,19.53
2023-05-04T16:51:02.205Z,19.47
2023-05-04T16:53:32.807Z,19.39
2023-05-04T16:55:59.952Z,19.31
2023-05-04T16:58:28.241Z,19.25
2023-05-04T17:00:55.153Z,19.19
2023-05-04T17:03:22.787Z,19.13
2023-05-04T17:05:50.732Z,19.07
2023-05-04T17:08:18.529Z,19.00
2023-05-04T17:10:45.927Z,18.94
2023-05-04T17:13:15.996Z,18.88
2023-05-04T17:15:44.622Z,18.81
2023-05-04T17:18:11.714Z,18.74
2023-05-04T17:20:38.762Z,18.68
2023-05-04T17:23:05.988Z,18.61
2023-05-04T17:25:33.752Z,18.54
2023-05-04T17:28:01.549Z,18.47
2023-05-04T17:30:29.064Z,18.40
2023-05-04T17:32:56.934Z,18.34
2023-05-04T17:35:26.235Z,18.27
2023-05-04T17:37:57.631Z,18.21
2023-05-04T17:40:26.814Z,18.13
2023-05-04T17:42:53.830Z,18.01
2023-05-04T17:45:21.156Z,17.90
2023-05-04T17:47:50.649Z,17.78
2023-05-04T17:50:17.576Z,17.66
2023-05-04T17:52:44.533Z,17.54
2023-05-04T17:55:11.656Z,17.44
2023-05-04T17:57:38.640Z,17.34
2023-05-04T18:00:07.138Z,17.24
2023-05-04T18:02:34.606Z,17.15
2023-05-04T18:05:02.326Z,17.07
2023-05-04T18:07:29.485Z,17.00
2023-05-04T18:09:56.349Z,16.94
2023-05-04T18:12:23.143Z,16.88
2023-05-04T18:14:50.501Z,16.83
2023-05-04T18:17:17.481Z,16.75
2023-05-04T18:19:44.263Z,16.66
2023-05-04T18:22:11.212Z,16.58
2023-05-04T18:24:38.679Z,16.51
2023-05-04T18:27:05.628Z,16.45
2023-05-04T18:29:33.218Z,16.36
2023-05-04T18:32:00.921Z,16.30
2023-05-04T18:34:27.836Z,16.23
2023-05-04T18:36:57.156Z,16.15
2023-05-04T18:39:24.687Z,16.07
2023-05-04T18:41:52.436Z,15.99
2023-05-04T18:44:19.517Z,15.94
2023-05-04T18:46:47.245Z,15.87
2023-05-04T18:49:14.381Z,15.81
2023-05-04T18:51:43.764Z,15.75
2023-05-04T18:54:11.519Z,15.69
2023-05-04T18:56:38.379Z,15.65
2023-05-04T18:59:06.069Z,15.59
2023-05-04T19:01:33.187Z,15.55
2023-05-04T19:04:00.365Z,15.51
2023-05-04T19:06:27.361Z,15.48
2023-05-04T19:08:56.485Z,15.43
2023-05-04T19:11:23.442Z,15.37
2023-05-04T19:13:51.040Z,15.31
2023-05-04T19:16:18.279Z,15.26
2023-05-04T19:18:45.756Z,15.22
2023-05-04T19:21:12.913Z,15.17
2023-05-04T19:23:40.112Z,15.14
2023-05-04T19:26:07.345Z,15.12
2023-05-04T19:28:34.507Z,15.12
2023-05-04T19:31:01.514Z,15.14
2023-05-04T19:33:40.322Z,15.16
2023-05-04T19:36:13.459Z,15.16
2023-05-04T19:38:41.116Z,15.14
2023-05-04T19:41:08.097Z,15.13
2023-05-04T19:43:37.969Z,15.11
2023-05-04T19:46:05.765Z,15.07
2023-05-04T19:48:34.069Z,15.02
2023-05-04T19:51:02.604Z,14.96
2023-05-04T19:53:31.137Z,14.91
2023-05-04T19:55:58.127Z,14.85
2023-05-04T19:58:26.142Z,14.79
2023-05-04T20:00:53.156Z,14.70
2023-05-04T20:03:20.211Z,14.62
2023-05-04T20:05:47.959Z,14.55
2023-05-04T20:08:15.624Z,14.49
2023-05-04T20:10:42.672Z,14.44
2023-05-04T20:13:09.847Z,14.40
2023-05-04T20:15:37.715Z,14.38
2023-05-04T20:18:04.801Z,14.36
2023-05-04T20:20:32.925Z,14.37
2023-05-04T20:23:00.848Z,14.37
2023-05-04T20:25:28.917Z,14.35
2023-05-04T20:27:56.344Z,14.32
2023-05-04T20:30:23.140Z,14.29
2023-05-04T20:32:50.299Z,14.25
2023-05-04T20:35:19.414Z,14.23
2023-05-04T20:37:46.238Z,14.21
2023-05-04T20:40:16.333Z,14.21
2023-05-04T20:42:43.872Z,14.24
2023-05-04T20:45:10.855Z,14.25
2023-05-04T20:47:38.029Z,14.24
2023-05-04T20:50:07.363Z,14.27
2023-05-04T20:52:38.062Z,14.29
2023-05-04T20:55:06.987Z,14.29
2023-05-04T20:57:33.829Z,14.27
2023-05-04T21:00:01.431Z,14.24
2023-05-04T21:04:55.708Z,14.17
2023-05-04T21:07:22.674Z,14.14
2023-05-04T21:09:49.871Z,14.12
2023-05-04T21:12:17.042Z,14.11
2023-05-04T21:14:44.036Z,14.11
2023-05-04T21:17:12.958Z,14.10
2023-05-04T21:19:39.937Z,14.07
2023-05-04T21:22:07.200Z,14.03
2023-05-04T21:24:35.299Z,14.01
2023-05-04T21:27:02.227Z,13.98
2023-05-04T21:29:29.129Z,13.93
2023-05-04T21:31:56.885Z,13.90
2023-05-04T21:34:24.426Z,13.88
2023-05-04T21:36:51.161Z,13.86
2023-05-04T21:39:18.032Z,13.84
2023-05-04T21:41:45.051Z,13.81
2023-05-04T21:44:11.877Z,13.78
2023-05-04T21:46:38.759Z,13.74
2023-05-04T21:49:06.772Z,13.71
2023-05-04T21:51:33.695Z,13.66
2023-05-04T21:54:01.619Z,13.62
2023-05-04T21:56:28.982Z,13.59
2023-05-04T21:58:55.854Z,13.57
2023-05-04T22:01:22.674Z,13.56
2023-05-04T22:03:50.025Z,13.55
2023-05-04T22:06:17.019Z,13.56
2023-05-04T22:08:44.354Z,13.57
2023-05-04T22:11:11.372Z,13.60
2023-05-04T22:13:38.397Z,13.62
2023-05-04T22:16:07.208Z,13.64
2023-05-04T22:18:34.666Z,13.67
2023-05-04T22:21:01.494Z,13.68
2023-05-04T22:23:28.574Z,13.68
2023-05-04T22:25:55.855Z,13.68
2023-05-04T22:28:22.860Z,13.67
2023-05-04T22:30:49.853Z,13.65
2023-05-04T22:33:16.845Z,13.63
2023-05-04T22:35:43.873Z,13.60
2023-05-04T22:38:11.510Z,13.58
2023-05-04T22:40:40.019Z,13.57
2023-05-04T22:43:08.014Z,13.57
2023-05-04T22:45:38.559Z,13.58
2023-05-04T22:48:06.110Z,13.59
2023-05-04T22:50:33.145Z,13.60
2023-05-04T22:53:00.014Z,13.60
2023-05-04T22:55:27.089Z,13.61
2023-05-04T22:57:53.934Z,13.61
2023-05-04T23:00:21.634Z,13.60
2023-05-04T23:02:48.671Z,13.58
2023-05-04T23:05:15.472Z,13.57
2023-05-04T23:07:42.259Z,13.55
2023-05-04T23:10:10.385Z,13.54
2023-05-04T23:12:37.799Z,13.54
2023-05-04T23:15:05.987Z,13.56
2023-05-04T23:17:33.784Z,13.59
2023-05-04T23:20:00.892Z,13.62
2023-05-04T23:22:27.704Z,13.64
2023-05-04T23:24:54.737Z,13.63
2023-05-04T23:27:21.640Z,13.62
2023-05-04T23:29:48.486Z,13.63
2023-05-04T23:32:15.924Z,13.63
2023-05-04T23:34:42.705Z,13.61
2023-05-04T23:37:09.620Z,13.61
2023-05-04T23:39:36.777Z,13.59
2023-05-04T23:42:03.546Z,13.58
2023-05-04T23:44:30.353Z,13.61
2023-05-04T23:46:57.398Z,13.63
2023-05-04T23:49:24.154Z,13.66
2023-05-04T23:51:50.900Z,13.67
2023-05-04T23:54:17.821Z,13.67
2023-05-04T23:56:44.587Z,13.66
2023-05-04T23:59:11.365Z,13.63
